sensor_id;sensor_type;location;lat;lon;timestamp;temperature;humidity
5023;DHT22;2530;47.990;7.866;2022-09-28T00:01:19;12.20;99.90
5023;DHT22;2530;47.990;7.866;2022-09-28T00:03:46;12.10;99.90
5023;DHT22;2530;47.990;7.866;2022-09-28T00:06:15;12.20;99.90
5023;DHT22;2530;47.990;7.866;2022-09-28T00:08:41;12.10;99.90
5023;DHT22;2530;47.990;7.866;2022-09-28T00:11:09;12.20;99.90
5023;DHT22;2530;47.990;7.866;2022-09-28T00:13:37;12.20;99.90
5023;DHT22;2530;47.990;7.866;2022-09-28T00:16:10;12.30;99.90
5023;DHT22;2530;47.990;7.866;2022-09-28T00:18:36;12.30;99.90
5023;DHT22;2530;47.990;7.866;2022-09-28T00:21:07;12.30;99.90
5023;DHT22;2530;47.990;7.866;2022-09-28T00:23:34;12.30;99.90
5023;DHT22;2530;47.990;7.866;2022-09-28T00:26:20;12.20;99.90
5023;DHT22;2530;47.990;7.866;2022-09-28T00:28:46;12.30;99.90
5023;DHT22;2530;47.990;7.866;2022-09-28T00:31:11;12.30;99.90
5023;DHT22;2530;47.990;7.866;2022-09-28T00:33:37;12.30;99.90
5023;DHT22;2530;47.990;7.866;2022-09-28T00:36:04;12.20;99.90
5023;DHT22;2530;47.990;7.866;2022-09-28T00:38:30;12.30;99.90
5023;DHT22;2530;47.990;7.866;2022-09-28T00:40:56;12.30;99.90
5023;DHT22;2530;47.990;7.866;2022-09-28T00:43:23;12.40;99.90
5023;DHT22;2530;47.990;7.866;2022-09-28T00:45:55;12.30;99.90
5023;DHT22;2530;47.990;7.866;2022-09-28T00:48:22;12.30;99.90
5023;DHT22;2530;47.990;7.866;2022-09-28T00:50:49;12.30;99.90
5023;DHT22;2530;47.990;7.866;2022-09-28T00:53:21;12.30;99.90
5023;DHT22;2530;47.990;7.866;2022-09-28T00:55:50;12.20;99.90
5023;DHT22;2530;47.990;7.866;2022-09-28T00:58:27;12.30;99.90
5023;DHT22;2530;47.990;7.866;2022-09-28T01:00:54;12.20;99.90
5023;DHT22;2530;47.990;7.866;2022-09-28T01:03:21;12.30;99.90
5023;DHT22;2530;47.990;7.866;2022-09-28T01:05:47;12.20;99.90
5023;DHT22;2530;47.990;7.866;2022-09-28T01:08:15;12.20;99.90
5023;DHT22;2530;47.990;7.866;2022-09-28T01:10:42;12.30;99.90
5023;DHT22;2530;47.990;7.866;2022-09-28T01:13:10;12.30;99.90
5023;DHT22;2530;47.990;7.866;2022-09-28T01:15:43;12.30;99.90
5023;DHT22;2530;47.990;7.866;2022-09-28T01:18:21;12.30;99.90
5023;DHT22;2530;47.990;7.866;2022-09-28T01:21:04;12.40;99.90
5023;DHT22;2530;47.990;7.866;2022-09-28T01:26:58;12.40;99.90
5023;DHT22;2530;47.990;7.866;2022-09-28T01:32:01;12.40;99.90
5023;DHT22;2530;47.990;7.866;2022-09-28T01:34:37;12.40;99.90
5023;DHT22;2530;47.990;7.866;2022-09-28T01:37:06;12.30;99.90
5023;DHT22;2530;47.990;7.866;2022-09-28T01:39:38;12.20;99.90
5023;DHT22;2530;47.990;7.866;2022-09-28T01:42:10;12.40;99.90
5023;DHT22;2530;47.990;7.866;2022-09-28T01:44:41;12.40;99.90
5023;DHT22;2530;47.990;7.866;2022-09-28T01:47:13;12.30;99.90
5023;DHT22;2530;47.990;7.866;2022-09-28T01:49:46;12.20;99.90
5023;DHT22;2530;47.990;7.866;2022-09-28T01:52:20;12.10;99.90
5023;DHT22;2530;47.990;7.866;2022-09-28T01:54:52;12.10;99.90
5023;DHT22;2530;47.990;7.866;2022-09-28T01:57:41;12.00;99.90
5023;DHT22;2530;47.990;7.866;2022-09-28T02:00:12;12.00;99.90
5023;DHT22;2530;47.990;7.866;2022-09-28T02:05:39;11.80;99.90
5023;DHT22;2530;47.990;7.866;2022-09-28T02:08:12;11.70;99.90
5023;DHT22;2530;47.990;7.866;2022-09-28T02:11:19;11.70;99.90
5023;DHT22;2530;47.990;7.866;2022-09-28T02:14:00;11.70;99.90
5023;DHT22;2530;47.990;7.866;2022-09-28T02:16:33;11.70;99.90
5023;DHT22;2530;47.990;7.866;2022-09-28T02:19:00;11.60;99.90
5023;DHT22;2530;47.990;7.866;2022-09-28T02:21:54;11.70;99.90
5023;DHT22;2530;47.990;7.866;2022-09-28T02:24:34;11.70;99.90
5023;DHT22;2530;47.990;7.866;2022-09-28T02:27:14;11.80;99.90
5023;DHT22;2530;47.990;7.866;2022-09-28T02:29:41;11.80;99.90
5023;DHT22;2530;47.990;7.866;2022-09-28T02:32:07;11.70;99.90
5023;DHT22;2530;47.990;7.866;2022-09-28T02:34:34;11.70;99.90
5023;DHT22;2530;47.990;7.866;2022-09-28T02:37:00;11.70;99.90
5023;DHT22;2530;47.990;7.866;2022-09-28T02:39:26;11.60;99.90
5023;DHT22;2530;47.990;7.866;2022-09-28T02:42:00;11.60;99.90
5023;DHT22;2530;47.990;7.866;2022-09-28T02:49:29;11.60;99.90
5023;DHT22;2530;47.990;7.866;2022-09-28T02:57:17;11.60;99.90
5023;DHT22;2530;47.990;7.866;2022-09-28T03:02:31;11.50;99.90
5023;DHT22;2530;47.990;7.866;2022-09-28T03:05:08;11.60;99.90
5023;DHT22;2530;47.990;7.866;2022-09-28T03:07:58;11.50;99.90
5023;DHT22;2530;47.990;7.866;2022-09-28T03:13:11;11.50;99.90
5023;DHT22;2530;47.990;7.866;2022-09-28T03:15:37;11.50;99.90
5023;DHT22;2530;47.990;7.866;2022-09-28T03:18:03;11.60;99.90
5023;DHT22;2530;47.990;7.866;2022-09-28T03:20:30;11.60;99.90
5023;DHT22;2530;47.990;7.866;2022-09-28T03:22:56;11.60;99.90
5023;DHT22;2530;47.990;7.866;2022-09-28T03:25:21;11.60;99.90
5023;DHT22;2530;47.990;7.866;2022-09-28T03:27:47;11.70;99.90
5023;DHT22;2530;47.990;7.866;2022-09-28T03:30:13;11.70;99.90
5023;DHT22;2530;47.990;7.866;2022-09-28T03:32:39;11.60;99.90
5023;DHT22;2530;47.990;7.866;2022-09-28T03:35:06;11.60;99.90
5023;DHT22;2530;47.990;7.866;2022-09-28T03:37:32;11.40;99.90
5023;DHT22;2530;47.990;7.866;2022-09-28T03:39:57;11.30;99.90
5023;DHT22;2530;47.990;7.866;2022-09-28T03:42:23;11.20;99.90
5023;DHT22;2530;47.990;7.866;2022-09-28T03:44:49;11.10;99.90
5023;DHT22;2530;47.990;7.866;2022-09-28T03:47:15;11.00;99.90
5023;DHT22;2530;47.990;7.866;2022-09-28T03:49:42;11.00;99.90
5023;DHT22;2530;47.990;7.866;2022-09-28T03:52:08;11.00;99.90
5023;DHT22;2530;47.990;7.866;2022-09-28T03:54:34;11.00;99.90
5023;DHT22;2530;47.990;7.866;2022-09-28T03:56:59;11.00;99.90
5023;DHT22;2530;47.990;7.866;2022-09-28T03:59:25;11.00;99.90
5023;DHT22;2530;47.990;7.866;2022-09-28T04:01:51;11.10;99.90
5023;DHT22;2530;47.990;7.866;2022-09-28T04:04:17;11.10;99.90
5023;DHT22;2530;47.990;7.866;2022-09-28T04:06:43;11.10;99.90
5023;DHT22;2530;47.990;7.866;2022-09-28T04:09:09;11.10;99.90
5023;DHT22;2530;47.990;7.866;2022-09-28T04:11:35;11.20;99.90
5023;DHT22;2530;47.990;7.866;2022-09-28T04:14:01;11.10;99.90
5023;DHT22;2530;47.990;7.866;2022-09-28T04:16:26;11.20;99.90
5023;DHT22;2530;47.990;7.866;2022-09-28T04:18:52;11.30;99.90
5023;DHT22;2530;47.990;7.866;2022-09-28T04:21:19;11.40;99.90
5023;DHT22;2530;47.990;7.866;2022-09-28T04:23:45;11.40;99.90
5023;DHT22;2530;47.990;7.866;2022-09-28T04:26:19;11.40;99.90
5023;DHT22;2530;47.990;7.866;2022-09-28T04:28:46;11.40;99.90
5023;DHT22;2530;47.990;7.866;2022-09-28T04:31:39;11.40;99.90
5023;DHT22;2530;47.990;7.866;2022-09-28T04:34:06;11.30;99.90
5023;DHT22;2530;47.990;7.866;2022-09-28T04:36:32;11.40;99.90
5023;DHT22;2530;47.990;7.866;2022-09-28T04:38:57;11.30;99.90
5023;DHT22;2530;47.990;7.866;2022-09-28T04:41:24;11.30;99.90
5023;DHT22;2530;47.990;7.866;2022-09-28T04:43:49;11.40;99.90
5023;DHT22;2530;47.990;7.866;2022-09-28T04:46:15;11.30;99.90
5023;DHT22;2530;47.990;7.866;2022-09-28T04:48:41;11.30;99.90
5023;DHT22;2530;47.990;7.866;2022-09-28T04:51:07;11.40;99.90
5023;DHT22;2530;47.990;7.866;2022-09-28T04:53:32;11.40;99.90
5023;DHT22;2530;47.990;7.866;2022-09-28T04:56:04;11.40;99.90
5023;DHT22;2530;47.990;7.866;2022-09-28T04:58:30;11.40;99.90
5023;DHT22;2530;47.990;7.866;2022-09-28T05:01:02;11.50;99.90
5023;DHT22;2530;47.990;7.866;2022-09-28T05:03:28;11.50;99.90
5023;DHT22;2530;47.990;7.866;2022-09-28T05:05:54;11.50;99.90
5023;DHT22;2530;47.990;7.866;2022-09-28T05:08:19;11.50;99.90
5023;DHT22;2530;47.990;7.866;2022-09-28T05:10:45;11.60;99.90
5023;DHT22;2530;47.990;7.866;2022-09-28T05:13:12;11.60;99.90
5023;DHT22;2530;47.990;7.866;2022-09-28T05:15:39;11.60;99.90
5023;DHT22;2530;47.990;7.866;2022-09-28T05:18:05;11.60;99.90
5023;DHT22;2530;47.990;7.866;2022-09-28T05:20:31;11.60;99.90
5023;DHT22;2530;47.990;7.866;2022-09-28T05:22:57;11.50;99.90
5023;DHT22;2530;47.990;7.866;2022-09-28T05:25:23;11.50;99.90
5023;DHT22;2530;47.990;7.866;2022-09-28T05:27:55;11.50;99.90
5023;DHT22;2530;47.990;7.866;2022-09-28T05:30:21;11.50;99.90
5023;DHT22;2530;47.990;7.866;2022-09-28T05:32:47;11.50;99.90
5023;DHT22;2530;47.990;7.866;2022-09-28T05:35:15;11.50;99.90
5023;DHT22;2530;47.990;7.866;2022-09-28T05:37:40;11.40;99.90
5023;DHT22;2530;47.990;7.866;2022-09-28T05:40:06;11.50;99.90
5023;DHT22;2530;47.990;7.866;2022-09-28T05:42:32;11.50;99.90
5023;DHT22;2530;47.990;7.866;2022-09-28T05:44:57;11.50;99.90
5023;DHT22;2530;47.990;7.866;2022-09-28T05:47:24;11.50;99.90
5023;DHT22;2530;47.990;7.866;2022-09-28T05:49:50;11.50;99.90
5023;DHT22;2530;47.990;7.866;2022-09-28T05:52:16;11.50;99.90
5023;DHT22;2530;47.990;7.866;2022-09-28T05:54:42;11.60;99.90
5023;DHT22;2530;47.990;7.866;2022-09-28T05:57:08;11.60;99.90
5023;DHT22;2530;47.990;7.866;2022-09-28T05:59:33;11.60;99.90
5023;DHT22;2530;47.990;7.866;2022-09-28T06:02:00;11.60;99.90
5023;DHT22;2530;47.990;7.866;2022-09-28T06:04:26;11.60;99.90
5023;DHT22;2530;47.990;7.866;2022-09-28T06:06:51;11.60;99.90
5023;DHT22;2530;47.990;7.866;2022-09-28T06:09:17;11.60;99.90
5023;DHT22;2530;47.990;7.866;2022-09-28T06:11:42;11.60;99.90
5023;DHT22;2530;47.990;7.866;2022-09-28T06:14:08;11.60;99.90
5023;DHT22;2530;47.990;7.866;2022-09-28T06:16:33;11.60;99.90
5023;DHT22;2530;47.990;7.866;2022-09-28T06:19:00;11.60;99.90
5023;DHT22;2530;47.990;7.866;2022-09-28T06:21:26;11.60;99.90
5023;DHT22;2530;47.990;7.866;2022-09-28T06:23:51;11.60;99.90
5023;DHT22;2530;47.990;7.866;2022-09-28T06:26:17;11.60;99.90
5023;DHT22;2530;47.990;7.866;2022-09-28T06:28:42;11.60;99.90
5023;DHT22;2530;47.990;7.866;2022-09-28T06:31:08;11.70;99.90
5023;DHT22;2530;47.990;7.866;2022-09-28T06:33:34;11.60;99.90
5023;DHT22;2530;47.990;7.866;2022-09-28T06:36:00;11.50;99.90
5023;DHT22;2530;47.990;7.866;2022-09-28T06:38:26;11.30;99.90
5023;DHT22;2530;47.990;7.866;2022-09-28T06:40:51;11.10;99.90
5023;DHT22;2530;47.990;7.866;2022-09-28T06:43:17;11.10;99.90
5023;DHT22;2530;47.990;7.866;2022-09-28T06:45:43;11.00;99.90
5023;DHT22;2530;47.990;7.866;2022-09-28T06:48:14;11.00;99.90
5023;DHT22;2530;47.990;7.866;2022-09-28T06:50:40;10.90;99.90
5023;DHT22;2530;47.990;7.866;2022-09-28T06:53:08;10.90;99.90
5023;DHT22;2530;47.990;7.866;2022-09-28T06:55:41;10.70;99.90
5023;DHT22;2530;47.990;7.866;2022-09-28T06:58:10;10.60;99.90
5023;DHT22;2530;47.990;7.866;2022-09-28T07:00:37;10.50;99.90
5023;DHT22;2530;47.990;7.866;2022-09-28T07:03:11;10.40;99.90
5023;DHT22;2530;47.990;7.866;2022-09-28T07:05:41;10.30;99.90
5023;DHT22;2530;47.990;7.866;2022-09-28T07:08:07;10.30;99.90
5023;DHT22;2530;47.990;7.866;2022-09-28T07:10:32;10.30;99.90
5023;DHT22;2530;47.990;7.866;2022-09-28T07:13:03;10.30;99.90
5023;DHT22;2530;47.990;7.866;2022-09-28T07:15:29;10.30;99.90
5023;DHT22;2530;47.990;7.866;2022-09-28T07:17:56;10.30;99.90
5023;DHT22;2530;47.990;7.866;2022-09-28T07:20:22;10.40;99.90
5023;DHT22;2530;47.990;7.866;2022-09-28T07:22:57;10.40;99.90
5023;DHT22;2530;47.990;7.866;2022-09-28T07:25:24;10.40;99.90
5023;DHT22;2530;47.990;7.866;2022-09-28T07:27:53;10.40;99.90
5023;DHT22;2530;47.990;7.866;2022-09-28T07:30:20;10.40;99.90
5023;DHT22;2530;47.990;7.866;2022-09-28T07:32:45;10.40;99.90
5023;DHT22;2530;47.990;7.866;2022-09-28T07:35:11;10.40;99.90
5023;DHT22;2530;47.990;7.866;2022-09-28T07:37:37;10.50;99.90
5023;DHT22;2530;47.990;7.866;2022-09-28T07:40:04;10.60;99.90
5023;DHT22;2530;47.990;7.866;2022-09-28T07:42:48;10.50;99.90
5023;DHT22;2530;47.990;7.866;2022-09-28T07:45:15;10.50;99.90
5023;DHT22;2530;47.990;7.866;2022-09-28T07:47:40;10.50;99.90
5023;DHT22;2530;47.990;7.866;2022-09-28T07:50:06;10.60;99.90
5023;DHT22;2530;47.990;7.866;2022-09-28T07:52:32;10.60;99.90
5023;DHT22;2530;47.990;7.866;2022-09-28T07:55:00;10.60;99.90
5023;DHT22;2530;47.990;7.866;2022-09-28T07:57:26;10.60;99.90
5023;DHT22;2530;47.990;7.866;2022-09-28T07:59:52;10.60;99.90
5023;DHT22;2530;47.990;7.866;2022-09-28T08:02:20;10.60;99.90
5023;DHT22;2530;47.990;7.866;2022-09-28T08:04:47;10.60;99.90
5023;DHT22;2530;47.990;7.866;2022-09-28T08:07:13;10.60;99.90
5023;DHT22;2530;47.990;7.866;2022-09-28T08:09:43;10.70;99.90
5023;DHT22;2530;47.990;7.866;2022-09-28T08:12:09;10.60;99.90
5023;DHT22;2530;47.990;7.866;2022-09-28T08:14:35;10.60;99.90
5023;DHT22;2530;47.990;7.866;2022-09-28T08:17:03;10.70;99.90
5023;DHT22;2530;47.990;7.866;2022-09-28T08:19:29;10.70;99.90
5023;DHT22;2530;47.990;7.866;2022-09-28T08:22:18;10.60;99.90
5023;DHT22;2530;47.990;7.866;2022-09-28T08:24:45;10.60;99.90
5023;DHT22;2530;47.990;7.866;2022-09-28T08:27:11;10.70;99.90
5023;DHT22;2530;47.990;7.866;2022-09-28T08:29:37;10.80;99.90
5023;DHT22;2530;47.990;7.866;2022-09-28T08:32:04;10.80;99.90
5023;DHT22;2530;47.990;7.866;2022-09-28T08:34:41;10.80;99.90
5023;DHT22;2530;47.990;7.866;2022-09-28T08:37:08;10.70;99.90
5023;DHT22;2530;47.990;7.866;2022-09-28T08:39:34;10.70;99.90
5023;DHT22;2530;47.990;7.866;2022-09-28T08:44:47;10.80;99.90
5023;DHT22;2530;47.990;7.866;2022-09-28T08:47:19;10.80;99.90
5023;DHT22;2530;47.990;7.866;2022-09-28T08:50:06;10.90;99.90
5023;DHT22;2530;47.990;7.866;2022-09-28T08:52:38;10.80;99.90
5023;DHT22;2530;47.990;7.866;2022-09-28T08:55:54;10.80;99.90
5023;DHT22;2530;47.990;7.866;2022-09-28T08:58:00;10.90;99.90
5023;DHT22;2530;47.990;7.866;2022-09-28T09:00:45;11.00;99.90
5023;DHT22;2530;47.990;7.866;2022-09-28T09:03:14;10.80;99.90
5023;DHT22;2530;47.990;7.866;2022-09-28T09:08:27;10.90;99.90
5023;DHT22;2530;47.990;7.866;2022-09-28T09:11:20;11.00;99.90
5023;DHT22;2530;47.990;7.866;2022-09-28T09:14:00;11.10;99.90
5023;DHT22;2530;47.990;7.866;2022-09-28T09:21:57;11.00;99.90
5023;DHT22;2530;47.990;7.866;2022-09-28T09:24:46;11.00;99.90
5023;DHT22;2530;47.990;7.866;2022-09-28T09:35:30;11.00;99.90
5023;DHT22;2530;47.990;7.866;2022-09-28T09:38:24;10.90;99.90
5023;DHT22;2530;47.990;7.866;2022-09-28T09:44:18;11.10;99.90
5023;DHT22;2530;47.990;7.866;2022-09-28T09:46:53;11.00;99.90
5023;DHT22;2530;47.990;7.866;2022-09-28T09:49:35;11.00;99.90
5023;DHT22;2530;47.990;7.866;2022-09-28T09:52:20;11.10;99.90
5023;DHT22;2530;47.990;7.866;2022-09-28T09:55:13;11.10;99.90
5023;DHT22;2530;47.990;7.866;2022-09-28T09:57:45;11.10;99.90
5023;DHT22;2530;47.990;7.866;2022-09-28T10:00:16;11.10;99.90
5023;DHT22;2530;47.990;7.866;2022-09-28T10:02:45;11.20;99.90
5023;DHT22;2530;47.990;7.866;2022-09-28T10:07:58;11.30;99.90
5023;DHT22;2530;47.990;7.866;2022-09-28T10:10:32;11.10;99.90
5023;DHT22;2530;47.990;7.866;2022-09-28T10:12:59;11.30;99.90
5023;DHT22;2530;47.990;7.866;2022-09-28T10:15:30;11.20;99.90
5023;DHT22;2530;47.990;7.866;2022-09-28T10:17:58;11.20;99.90
5023;DHT22;2530;47.990;7.866;2022-09-28T10:20:26;11.30;99.90
5023;DHT22;2530;47.990;7.866;2022-09-28T10:22:56;11.10;99.90
5023;DHT22;2530;47.990;7.866;2022-09-28T10:25:23;11.10;99.90
5023;DHT22;2530;47.990;7.866;2022-09-28T10:27:50;11.10;99.90
5023;DHT22;2530;47.990;7.866;2022-09-28T10:30:21;11.10;99.90
5023;DHT22;2530;47.990;7.866;2022-09-28T10:32:50;11.20;99.90
5023;DHT22;2530;47.990;7.866;2022-09-28T10:35:28;11.10;99.90
5023;DHT22;2530;47.990;7.866;2022-09-28T10:43:30;11.30;99.90
5023;DHT22;2530;47.990;7.866;2022-09-28T10:46:09;11.30;99.90
5023;DHT22;2530;47.990;7.866;2022-09-28T10:49:02;11.40;99.90
5023;DHT22;2530;47.990;7.866;2022-09-28T10:51:49;11.30;99.90
5023;DHT22;2530;47.990;7.866;2022-09-28T10:54:21;11.40;99.90
5023;DHT22;2530;47.990;7.866;2022-09-28T10:56:48;11.30;99.90
5023;DHT22;2530;47.990;7.866;2022-09-28T11:02:11;11.30;99.90
5023;DHT22;2530;47.990;7.866;2022-09-28T11:04:40;11.30;99.90
5023;DHT22;2530;47.990;7.866;2022-09-28T11:07:20;11.30;99.90
5023;DHT22;2530;47.990;7.866;2022-09-28T11:09:49;11.30;99.90
5023;DHT22;2530;47.990;7.866;2022-09-28T11:12:19;11.30;99.90
5023;DHT22;2530;47.990;7.866;2022-09-28T11:14:47;11.30;99.90
5023;DHT22;2530;47.990;7.866;2022-09-28T11:19:48;11.30;99.90
5023;DHT22;2530;47.990;7.866;2022-09-28T11:27:40;11.30;99.90
5023;DHT22;2530;47.990;7.866;2022-09-28T11:32:46;11.10;99.90
5023;DHT22;2530;47.990;7.866;2022-09-28T11:35:21;11.30;99.90
5023;DHT22;2530;47.990;7.866;2022-09-28T11:40:51;11.30;99.90
5023;DHT22;2530;47.990;7.866;2022-09-28T11:43:46;11.40;99.90
5023;DHT22;2530;47.990;7.866;2022-09-28T11:46:32;11.20;99.90
5023;DHT22;2530;47.990;7.866;2022-09-28T11:49:14;11.20;99.90
5023;DHT22;2530;47.990;7.866;2022-09-28T11:51:45;11.20;99.90
5023;DHT22;2530;47.990;7.866;2022-09-28T11:56:51;11.10;99.90
5023;DHT22;2530;47.990;7.866;2022-09-28T11:59:28;11.20;99.90
5023;DHT22;2530;47.990;7.866;2022-09-28T12:01:57;11.20;99.90
5023;DHT22;2530;47.990;7.866;2022-09-28T12:04:36;11.20;99.90
5023;DHT22;2530;47.990;7.866;2022-09-28T12:12:49;11.10;99.90
5023;DHT22;2530;47.990;7.866;2022-09-28T12:15:45;11.10;99.90
5023;DHT22;2530;47.990;7.866;2022-09-28T12:18:17;11.00;99.90
5023;DHT22;2530;47.990;7.866;2022-09-28T12:21:32;11.00;99.90
5023;DHT22;2530;47.990;7.866;2022-09-28T12:23:39;11.00;99.90
5023;DHT22;2530;47.990;7.866;2022-09-28T12:26:33;11.00;99.90
5023;DHT22;2530;47.990;7.866;2022-09-28T12:29:01;11.00;99.90
5023;DHT22;2530;47.990;7.866;2022-09-28T12:31:38;11.00;99.90
5023;DHT22;2530;47.990;7.866;2022-09-28T12:34:05;11.00;99.90
5023;DHT22;2530;47.990;7.866;2022-09-28T12:42:14;10.90;99.90
5023;DHT22;2530;47.990;7.866;2022-09-28T12:47:52;11.00;99.90
5023;DHT22;2530;47.990;7.866;2022-09-28T12:56:01;10.90;99.90
5023;DHT22;2530;47.990;7.866;2022-09-28T13:01:12;11.00;99.90
5023;DHT22;2530;47.990;7.866;2022-09-28T13:03:49;10.90;99.90
5023;DHT22;2530;47.990;7.866;2022-09-28T13:09:10;10.90;99.90
5023;DHT22;2530;47.990;7.866;2022-09-28T13:11:48;10.80;99.90
5023;DHT22;2530;47.990;7.866;2022-09-28T13:14:46;10.60;99.90
5023;DHT22;2530;47.990;7.866;2022-09-28T13:20:26;10.60;99.90
5023;DHT22;2530;47.990;7.866;2022-09-28T13:23:07;10.70;99.90
5023;DHT22;2530;47.990;7.866;2022-09-28T13:25:39;10.60;99.90
5023;DHT22;2530;47.990;7.866;2022-09-28T13:28:10;10.60;99.90
5023;DHT22;2530;47.990;7.866;2022-09-28T13:30:39;10.60;99.90
5023;DHT22;2530;47.990;7.866;2022-09-28T13:33:06;10.70;99.90
5023;DHT22;2530;47.990;7.866;2022-09-28T13:35:41;10.60;99.90
5023;DHT22;2530;47.990;7.866;2022-09-28T13:38:43;10.80;99.90
5023;DHT22;2530;47.990;7.866;2022-09-28T13:41:11;10.80;99.90
5023;DHT22;2530;47.990;7.866;2022-09-28T13:46:32;10.80;99.90
5023;DHT22;2530;47.990;7.866;2022-09-28T13:52:04;10.60;99.90
5023;DHT22;2530;47.990;7.866;2022-09-28T13:58:01;10.70;99.90
5023;DHT22;2530;47.990;7.866;2022-09-28T14:00:49;10.70;99.90
5023;DHT22;2530;47.990;7.866;2022-09-28T14:06:29;10.80;99.90
5023;DHT22;2530;47.990;7.866;2022-09-28T14:16:31;10.80;99.90
5023;DHT22;2530;47.990;7.866;2022-09-28T14:30:19;10.70;99.90
5023;DHT22;2530;47.990;7.866;2022-09-28T14:32:55;10.70;99.90
5023;DHT22;2530;47.990;7.866;2022-09-28T14:35:39;10.80;99.90
5023;DHT22;2530;47.990;7.866;2022-09-28T14:38:14;10.70;99.90
5023;DHT22;2530;47.990;7.866;2022-09-28T14:41:40;10.70;99.90
5023;DHT22;2530;47.990;7.866;2022-09-28T14:44:12;10.60;99.90
5023;DHT22;2530;47.990;7.866;2022-09-28T14:46:41;10.60;99.90
5023;DHT22;2530;47.990;7.866;2022-09-28T14:54:20;10.50;99.90
5023;DHT22;2530;47.990;7.866;2022-09-28T14:59:18;10.60;99.90
5023;DHT22;2530;47.990;7.866;2022-09-28T15:04:33;10.70;99.90
5023;DHT22;2530;47.990;7.866;2022-09-28T15:07:03;10.50;99.90
5023;DHT22;2530;47.990;7.866;2022-09-28T15:09:36;10.50;99.90
5023;DHT22;2530;47.990;7.866;2022-09-28T15:17:10;10.60;99.90
5023;DHT22;2530;47.990;7.866;2022-09-28T15:19:39;10.60;99.90
5023;DHT22;2530;47.990;7.866;2022-09-28T15:22:14;10.50;99.90
5023;DHT22;2530;47.990;7.866;2022-09-28T15:24:44;10.30;99.90
5023;DHT22;2530;47.990;7.866;2022-09-28T15:27:15;10.30;99.90
5023;DHT22;2530;47.990;7.866;2022-09-28T15:29:57;10.30;99.90
5023;DHT22;2530;47.990;7.866;2022-09-28T15:32:25;10.40;99.90
5023;DHT22;2530;47.990;7.866;2022-09-28T15:34:51;10.50;99.90
5023;DHT22;2530;47.990;7.866;2022-09-28T15:37:28;10.50;99.90
5023;DHT22;2530;47.990;7.866;2022-09-28T15:39:58;10.50;99.90
5023;DHT22;2530;47.990;7.866;2022-09-28T15:42:24;10.50;99.90
5023;DHT22;2530;47.990;7.866;2022-09-28T15:47:35;10.50;99.90
5023;DHT22;2530;47.990;7.866;2022-09-28T15:52:53;10.40;99.90
5023;DHT22;2530;47.990;7.866;2022-09-28T15:55:32;10.50;99.90
5023;DHT22;2530;47.990;7.866;2022-09-28T15:58:19;10.50;99.90
5023;DHT22;2530;47.990;7.866;2022-09-28T16:00:50;10.50;99.90
5023;DHT22;2530;47.990;7.866;2022-09-28T16:03:35;10.40;99.90
5023;DHT22;2530;47.990;7.866;2022-09-28T16:06:06;10.30;99.90
5023;DHT22;2530;47.990;7.866;2022-09-28T16:11:35;10.40;99.90
5023;DHT22;2530;47.990;7.866;2022-09-28T16:14:05;10.30;99.90
5023;DHT22;2530;47.990;7.866;2022-09-28T16:16:35;10.40;99.90
5023;DHT22;2530;47.990;7.866;2022-09-28T16:19:02;10.40;99.90
5023;DHT22;2530;47.990;7.866;2022-09-28T16:23:53;10.40;99.90
5023;DHT22;2530;47.990;7.866;2022-09-28T16:26:34;10.30;99.90
5023;DHT22;2530;47.990;7.866;2022-09-28T16:29:23;10.30;99.90
5023;DHT22;2530;47.990;7.866;2022-09-28T16:31:50;10.30;99.90
5023;DHT22;2530;47.990;7.866;2022-09-28T16:34:24;10.30;99.90
5023;DHT22;2530;47.990;7.866;2022-09-28T16:36:50;10.20;99.90
5023;DHT22;2530;47.990;7.866;2022-09-28T16:39:17;10.20;99.90
5023;DHT22;2530;47.990;7.866;2022-09-28T16:41:50;10.20;99.90
5023;DHT22;2530;47.990;7.866;2022-09-28T16:44:24;10.30;99.90
5023;DHT22;2530;47.990;7.866;2022-09-28T16:46:52;10.10;99.90
5023;DHT22;2530;47.990;7.866;2022-09-28T16:49:20;10.10;99.90
5023;DHT22;2530;47.990;7.866;2022-09-28T16:51:47;10.10;99.90
5023;DHT22;2530;47.990;7.866;2022-09-28T16:54:18;10.00;99.90
5023;DHT22;2530;47.990;7.866;2022-09-28T16:57:04;10.00;99.90
5023;DHT22;2530;47.990;7.866;2022-09-28T16:59:32;9.90;99.90
5023;DHT22;2530;47.990;7.866;2022-09-28T17:02:00;9.90;99.90
5023;DHT22;2530;47.990;7.866;2022-09-28T17:04:26;9.90;99.90
5023;DHT22;2530;47.990;7.866;2022-09-28T17:06:57;10.00;99.90
5023;DHT22;2530;47.990;7.866;2022-09-28T17:09:25;9.90;99.90
5023;DHT22;2530;47.990;7.866;2022-09-28T17:11:51;10.00;99.90
5023;DHT22;2530;47.990;7.866;2022-09-28T17:14:22;9.80;99.90
5023;DHT22;2530;47.990;7.866;2022-09-28T17:16:48;9.70;99.90
5023;DHT22;2530;47.990;7.866;2022-09-28T17:19:22;9.80;99.90
5023;DHT22;2530;47.990;7.866;2022-09-28T17:21:49;9.80;99.90
5023;DHT22;2530;47.990;7.866;2022-09-28T17:24:16;9.80;99.90
5023;DHT22;2530;47.990;7.866;2022-09-28T17:26:42;9.80;99.90
5023;DHT22;2530;47.990;7.866;2022-09-28T17:29:13;9.70;99.90
5023;DHT22;2530;47.990;7.866;2022-09-28T17:31:40;9.70;99.90
5023;DHT22;2530;47.990;7.866;2022-09-28T17:34:06;9.70;99.90
5023;DHT22;2530;47.990;7.866;2022-09-28T17:36:32;9.80;99.90
5023;DHT22;2530;47.990;7.866;2022-09-28T17:38:57;9.60;99.90
5023;DHT22;2530;47.990;7.866;2022-09-28T17:41:23;9.60;99.90
5023;DHT22;2530;47.990;7.866;2022-09-28T17:43:48;9.70;99.90
5023;DHT22;2530;47.990;7.866;2022-09-28T17:49:13;9.50;99.90
5023;DHT22;2530;47.990;7.866;2022-09-28T17:51:39;9.50;99.90
5023;DHT22;2530;47.990;7.866;2022-09-28T17:54:06;9.60;99.90
5023;DHT22;2530;47.990;7.866;2022-09-28T17:56:32;9.40;99.90
5023;DHT22;2530;47.990;7.866;2022-09-28T17:59:06;9.60;99.90
5023;DHT22;2530;47.990;7.866;2022-09-28T18:01:32;9.60;99.90
5023;DHT22;2530;47.990;7.866;2022-09-28T18:04:02;9.60;99.90
5023;DHT22;2530;47.990;7.866;2022-09-28T18:06:29;9.60;99.90
5023;DHT22;2530;47.990;7.866;2022-09-28T18:08:57;9.60;99.90
5023;DHT22;2530;47.990;7.866;2022-09-28T18:11:23;9.50;99.90
5023;DHT22;2530;47.990;7.866;2022-09-28T18:13:49;9.40;99.90
5023;DHT22;2530;47.990;7.866;2022-09-28T18:16:14;9.60;99.90
5023;DHT22;2530;47.990;7.866;2022-09-28T18:18:40;9.50;99.90
5023;DHT22;2530;47.990;7.866;2022-09-28T18:21:06;9.50;99.90
5023;DHT22;2530;47.990;7.866;2022-09-28T18:23:36;9.50;99.90
5023;DHT22;2530;47.990;7.866;2022-09-28T18:26:02;9.50;99.90
5023;DHT22;2530;47.990;7.866;2022-09-28T18:28:28;9.60;99.90
5023;DHT22;2530;47.990;7.866;2022-09-28T18:30:53;9.60;99.90
5023;DHT22;2530;47.990;7.866;2022-09-28T18:33:19;9.50;99.90
5023;DHT22;2530;47.990;7.866;2022-09-28T18:35:54;9.60;99.90
5023;DHT22;2530;47.990;7.866;2022-09-28T18:38:20;9.50;99.90
5023;DHT22;2530;47.990;7.866;2022-09-28T18:40:46;9.50;99.90
5023;DHT22;2530;47.990;7.866;2022-09-28T18:43:13;9.60;99.90
5023;DHT22;2530;47.990;7.866;2022-09-28T18:45:38;9.50;99.90
5023;DHT22;2530;47.990;7.866;2022-09-28T18:48:04;9.60;99.90
5023;DHT22;2530;47.990;7.866;2022-09-28T18:50:29;9.50;99.90
5023;DHT22;2530;47.990;7.866;2022-09-28T18:52:55;9.50;99.90
5023;DHT22;2530;47.990;7.866;2022-09-28T18:55:39;9.50;99.90
5023;DHT22;2530;47.990;7.866;2022-09-28T18:58:07;9.50;99.90
5023;DHT22;2530;47.990;7.866;2022-09-28T19:00:33;9.50;99.90
5023;DHT22;2530;47.990;7.866;2022-09-28T19:03:01;9.60;99.90
5023;DHT22;2530;47.990;7.866;2022-09-28T19:05:26;9.50;99.90
5023;DHT22;2530;47.990;7.866;2022-09-28T19:07:52;9.40;99.90
5023;DHT22;2530;47.990;7.866;2022-09-28T19:10:19;9.50;99.90